Time;durP1;ratioP1;P1;durP2;ratioP2;P2;SDS_P1;SDS_P2;PMS_P1;PMS_P2;Temp;Humidity;BMP_temperature;BMP_pressure;BME280_temperature;BME280_humidity;BME280_pressure;Samples;Min_cycle;Max_cycle;Signal;HPM_P1;HPM_P2
2022/04/12 00:01:07;;;;;;;10.93;5.20;;;;;;;11.47;55.84;100313.53;5076642;28;20232;-64
2022/04/12 00:03:39;;;;;;;9.23;5.37;;;;;;;11.47;56.42;100311.72;5082752;28;20302;-64
2022/04/12 00:06:13;;;;;;;10.10;5.20;;;;;;;11.43;56.58;100313.03;5077235;28;22058;-64
2022/04/12 00:08:41;;;;;;;8.53;5.00;;;;;;;11.47;56.25;100308.22;5071288;28;20717;-64
2022/04/12 00:11:12;;;;;;;8.43;5.27;;;;;;;11.41;56.60;100315.00;5076198;28;20581;-64
2022/04/12 00:13:40;;;;;;;6.70;4.90;;;;;;;11.44;56.37;100314.66;5073549;28;20209;-64
2022/04/12 00:16:08;;;;;;;7.30;4.67;;;;;;;11.38;57.00;100315.31;5076848;28;20222;-65
2022/04/12 00:21:21;;;;;;;9.47;4.97;;;;;;;11.30;57.17;100316.09;5076803;28;20919;-64
2022/04/12 00:23:49;;;;;;;11.77;5.53;;;;;;;11.30;57.20;100313.44;5077839;28;20238;-64
2022/04/12 00:26:19;;;;;;;7.87;5.03;;;;;;;11.30;57.23;100308.13;5072116;28;20661;-65
2022/04/12 00:28:46;;;;;;;7.63;4.83;;;;;;;11.29;57.12;100306.47;5077112;28;20719;-65
2022/04/12 00:31:17;;;;;;;10.50;4.97;;;;;;;11.02;57.71;100303.97;5076955;28;20572;-64
2022/04/12 00:33:45;;;;;;;9.73;5.30;;;;;;;10.81;58.45;100296.34;5079736;28;20204;-64
2022/04/12 00:36:15;;;;;;;8.40;5.30;;;;;;;11.07;57.65;100308.81;5078774;28;20215;-64
2022/04/12 00:38:43;;;;;;;8.87;4.83;;;;;;;11.12;57.77;100303.84;5079771;28;20239;-64
2022/04/12 00:41:11;;;;;;;8.27;4.93;;;;;;;11.00;57.74;100305.09;5075501;28;20243;-64
2022/04/12 00:43:43;;;;;;;8.63;5.27;;;;;;;10.83;58.17;100307.63;5077375;28;20686;-64
2022/04/12 00:46:11;;;;;;;7.37;5.13;;;;;;;11.01;58.10;100304.94;5079697;28;20207;-64
2022/04/12 00:48:39;;;;;;;7.40;5.07;;;;;;;11.03;57.60;100304.78;5080452;28;20232;-64
2022/04/12 00:51:07;;;;;;;7.50;5.07;;;;;;;11.07;57.53;100306.16;5075473;28;20212;-64
2022/04/12 00:53:36;;;;;;;8.77;5.40;;;;;;;11.06;57.55;100305.31;5082499;28;20272;-64
2022/04/12 00:56:06;;;;;;;10.43;5.70;;;;;;;11.06;57.89;100309.78;5077455;28;20908;-64
2022/04/12 00:58:34;;;;;;;10.10;5.17;;;;;;;11.04;58.02;100303.81;5076009;28;20214;-64
2022/04/12 01:01:15;;;;;;;8.90;5.67;;;;;;;11.01;58.57;100306.75;5074853;28;20204;-64
2022/04/12 01:03:43;;;;;;;7.13;4.90;;;;;;;10.94;58.97;100299.44;5082109;28;20224;-64
2022/04/12 01:06:18;;;;;;;8.47;5.07;;;;;;;10.94;58.53;100298.59;5075316;28;20202;-64
2022/04/12 01:08:46;;;;;;;8.43;5.07;;;;;;;10.96;58.10;100304.59;5075534;28;20290;-65
2022/04/12 01:11:16;;;;;;;7.63;5.37;;;;;;;10.92;58.16;100305.88;5074475;28;20240;-64
2022/04/12 01:13:46;;;;;;;6.97;4.77;;;;;;;10.89;58.49;100301.72;5080404;28;20266;-65
2022/04/12 01:16:22;;;;;;;9.60;5.50;;;;;;;10.64;59.50;100297.22;5076732;28;20203;-66
2022/04/12 01:18:58;;;;;;;9.40;4.63;;;;;;;10.80;58.60;100297.34;5079484;28;20591;-65
2022/04/12 01:21:32;;;;;;;7.83;4.90;;;;;;;10.86;58.18;100294.06;5076508;28;20299;-64
2022/04/12 01:24:02;;;;;;;7.97;5.43;;;;;;;10.61;59.45;100289.53;5077751;28;20212;-64
2022/04/12 01:26:30;;;;;;;9.13;4.97;;;;;;;10.67;58.01;100288.94;5074973;28;20215;-63
2022/04/12 01:29:00;;;;;;;12.40;5.30;;;;;;;10.80;57.49;100293.84;5073586;28;20329;-65
2022/04/12 01:31:28;;;;;;;13.50;5.57;;;;;;;10.47;58.53;100284.75;5081440;28;20242;-65
2022/04/12 01:33:56;;;;;;;10.60;5.33;;;;;;;10.72;58.38;100286.66;5074028;28;20856;-64
2022/04/12 01:36:25;;;;;;;10.37;5.27;;;;;;;10.70;58.43;100288.63;5072441;28;20823;-64
2022/04/12 01:38:53;;;;;;;7.43;5.47;;;;;;;10.48;59.30;100283.78;5069912;28;20219;-64
2022/04/12 01:41:22;;;;;;;8.50;5.40;;;;;;;10.67;58.60;100288.94;5081039;28;20198;-64
2022/04/12 01:43:49;;;;;;;8.73;5.10;;;;;;;10.61;58.29;100288.72;5077600;28;20322;-65
2022/04/12 01:46:17;;;;;;;9.00;4.90;;;;;;;10.68;58.29;100284.47;5077798;28;20231;-65
2022/04/12 01:48:49;;;;;;;7.90;4.87;;;;;;;10.66;58.37;100276.66;5071911;28;20311;-65
2022/04/12 01:51:17;;;;;;;7.97;4.53;;;;;;;10.50;58.46;100276.50;5076498;28;20551;-65
2022/04/12 01:53:45;;;;;;;11.57;5.07;;;;;;;10.64;58.30;100283.13;5071647;28;20205;-64
2022/04/12 01:56:13;;;;;;;10.50;5.17;;;;;;;10.64;58.20;100278.66;5074886;28;20221;-64
2022/04/12 01:58:42;;;;;;;9.30;5.87;;;;;;;10.63;58.11;100284.94;5077573;28;20687;-65
2022/04/12 02:01:10;;;;;;;9.60;5.27;;;;;;;10.54;57.86;100280.53;5076839;28;20201;-65
2022/04/12 02:03:40;;;;;;;7.53;5.23;;;;;;;10.66;57.59;100271.34;5076321;28;20852;-64
2022/04/12 02:06:08;;;;;;;10.33;4.93;;;;;;;10.65;57.31;100279.44;5080699;28;20305;-64
2022/04/12 02:08:36;;;;;;;9.90;5.30;;;;;;;10.66;57.55;100276.66;5073708;28;20440;-65
2022/04/12 02:11:13;;;;;;;13.90;5.27;;;;;;;10.62;57.47;100280.59;5072307;28;20232;-65
2022/04/12 02:13:42;;;;;;;9.53;4.73;;;;;;;10.64;57.38;100283.13;5078928;28;20204;-65
2022/04/12 02:16:10;;;;;;;7.83;4.93;;;;;;;10.60;57.56;100285.22;5074977;28;20208;-65
2022/04/12 02:18:42;;;;;;;10.77;4.83;;;;;;;10.66;57.05;100281.94;5074469;28;20204;-65
2022/04/12 02:21:10;;;;;;;8.70;5.23;;;;;;;10.69;57.06;100286.97;5078468;28;20750;-65
2022/04/12 02:23:43;;;;;;;10.13;4.73;;;;;;;10.47;58.03;100287.41;5074103;28;20204;-65
2022/04/12 02:26:12;;;;;;;10.43;4.63;;;;;;;10.56;57.56;100286.50;5075260;28;20251;-65
2022/04/12 02:28:39;;;;;;;10.10;4.97;;;;;;;10.51;57.69;100278.19;5076387;28;20204;-65
2022/04/12 02:31:08;;;;;;;9.67;5.40;;;;;;;10.49;57.17;100269.53;5074083;28;20219;-65
2022/04/12 02:33:37;;;;;;;8.90;5.27;;;;;;;10.48;57.45;100273.19;5076341;28;20690;-65
2022/04/12 02:36:10;;;;;;;8.93;4.73;;;;;;;10.52;57.37;100269.25;5076124;28;20207;-65
2022/04/12 02:38:42;;;;;;;7.13;4.57;;;;;;;10.42;57.20;100273.78;5076802;28;20648;-65
2022/04/12 02:41:10;;;;;;;8.23;5.20;;;;;;;10.48;56.95;100283.78;5075338;28;20216;-65
2022/04/12 02:43:38;;;;;;;8.20;4.87;;;;;;;10.52;56.87;100274.56;5081181;28;20203;-65
2022/04/12 02:46:07;;;;;;;9.40;4.93;;;;;;;10.54;56.96;100283.19;5076251;28;20226;-65
2022/04/12 02:48:35;;;;;;;13.57;4.97;;;;;;;10.50;57.67;100287.13;5078404;28;20203;-65
2022/04/12 02:51:03;;;;;;;9.63;5.00;;;;;;;10.29;58.19;100286.59;5077216;28;20238;-65
2022/04/12 02:53:30;;;;;;;8.37;4.80;;;;;;;10.31;58.00;100281.97;5077258;28;20214;-65
2022/04/12 02:55:58;;;;;;;7.90;5.27;;;;;;;10.35;57.56;100278.03;5079556;28;20225;-65
2022/04/12 02:58:26;;;;;;;8.77;4.70;;;;;;;10.19;58.32;100278.72;5077618;28;20204;-65
2022/04/12 03:00:54;;;;;;;6.53;4.67;;;;;;;10.32;57.52;100265.09;5075298;28;20220;-65
2022/04/12 03:03:23;;;;;;;7.00;4.67;;;;;;;10.36;57.30;100263.81;5076698;28;20262;-65
2022/04/12 03:05:51;;;;;;;8.97;4.90;;;;;;;10.29;57.42;100262.75;5079715;28;20690;-65
2022/04/12 03:08:18;;;;;;;11.20;5.67;;;;;;;10.23;57.84;100273.94;5074468;28;21778;-65
2022/04/12 03:10:46;;;;;;;9.57;4.50;;;;;;;10.32;57.28;100268.56;5077141;28;20257;-65
2022/04/12 03:13:14;;;;;;;9.27;5.37;;;;;;;10.39;56.92;100268.78;5077618;28;21415;-65
2022/04/12 03:15:41;;;;;;;8.07;5.03;;;;;;;10.24;57.64;100265.84;5075011;28;20272;-65
2022/04/12 03:18:10;;;;;;;7.80;4.67;;;;;;;10.14;57.63;100273.81;5077847;28;20302;-65
2022/04/12 03:20:39;;;;;;;7.80;4.87;;;;;;;10.28;57.32;100274.34;5081266;28;20222;-65
2022/04/12 03:23:07;;;;;;;7.23;4.77;;;;;;;10.24;57.33;100268.50;5077014;28;20215;-65
2022/04/12 03:25:35;;;;;;;8.13;5.13;;;;;;;10.24;57.17;100270.31;5075985;28;20229;-65
2022/04/12 03:28:02;;;;;;;7.93;4.70;;;;;;;10.24;57.35;100270.31;5079801;28;20305;-65
2022/04/12 03:30:30;;;;;;;11.20;5.47;;;;;;;10.26;57.36;100268.34;5080149;28;20653;-65
2022/04/12 03:32:58;;;;;;;7.90;4.50;;;;;;;10.18;57.90;100266.44;5078147;28;20257;-65
2022/04/12 03:35:26;;;;;;;11.00;5.33;;;;;;;10.09;58.04;100264.66;5082616;28;20650;-65
2022/04/12 03:37:59;;;;;;;7.33;5.03;;;;;;;10.06;57.94;100257.84;5083492;28;20231;-65
2022/04/12 03:40:30;;;;;;;8.63;5.00;;;;;;;10.02;58.39;100259.16;5073918;28;20202;-65
2022/04/12 03:42:59;;;;;;;10.10;5.27;;;;;;;10.15;57.71;100264.91;5077283;28;20239;-65
2022/04/12 03:45:27;;;;;;;9.60;4.77;;;;;;;10.18;57.50;100263.81;5080382;28;20231;-65
2022/04/12 03:47:56;;;;;;;14.33;5.37;;;;;;;10.15;57.98;100264.91;5078720;28;20672;-65
2022/04/12 03:50:24;;;;;;;9.73;4.70;;;;;;;9.95;58.55;100263.34;5080619;28;20984;-65
2022/04/12 03:52:53;;;;;;;13.20;5.77;;;;;;;9.98;58.68;100264.88;5079036;28;20211;-66
2022/04/12 03:55:31;;;;;;;14.60;5.63;;;;;;;9.90;58.52;100257.69;5076592;28;20214;-64
2022/04/12 03:57:59;;;;;;;10.57;4.73;;;;;;;10.03;58.66;100258.13;5079427;28;20631;-64
2022/04/12 04:00:28;;;;;;;9.77;5.80;;;;;;;10.07;58.03;100250.72;5081859;28;20211;-64
2022/04/12 04:02:56;;;;;;;11.67;5.37;;;;;;;10.08;58.08;100255.88;5078701;28;20323;-64
2022/04/12 04:05:37;;;;;;;7.93;4.83;;;;;;;10.12;58.04;100251.94;5082452;28;20330;-64
2022/04/12 04:08:05;;;;;;;9.30;5.47;;;;;;;10.16;57.89;100263.09;5078381;28;20291;-64
2022/04/12 04:10:34;;;;;;;8.13;5.47;;;;;;;10.14;58.05;100260.56;5076193;28;20248;-64
2022/04/12 04:13:04;;;;;;;9.77;5.23;;;;;;;10.16;58.32;100268.38;5074872;28;20305;-64
2022/04/12 04:15:36;;;;;;;11.33;4.97;;;;;;;9.83;59.04;100272.50;5078998;28;20449;-64
2022/04/12 04:18:11;;;;;;;9.80;5.30;;;;;;;10.00;58.80;100276.16;5080509;28;20199;-66
2022/04/12 04:20:42;;;;;;;8.47;5.00;;;;;;;10.01;58.68;100272.53;5082199;28;20245;-65
2022/04/12 04:23:10;;;;;;;11.53;5.40;;;;;;;10.06;58.22;100276.38;5079020;28;20305;-63
2022/04/12 04:25:39;;;;;;;11.00;5.53;;;;;;;10.05;58.26;100274.72;5078045;28;20236;-65
2022/04/12 04:28:10;;;;;;;8.97;5.33;;;;;;;10.07;57.97;100272.75;5081189;28;20234;-65
2022/04/12 04:30:39;;;;;;;12.00;5.53;;;;;;;9.98;58.42;100276.31;5074954;28;20896;-65
2022/04/12 04:33:08;;;;;;;9.00;5.20;;;;;;;10.07;58.15;100278.06;5079258;28;20202;-65
2022/04/12 04:35:35;;;;;;;8.33;5.00;;;;;;;9.97;58.38;100264.03;5079722;28;20766;-65
2022/04/12 04:38:03;;;;;;;14.83;5.30;;;;;;;9.82;59.26;100265.53;5075841;28;20326;-65
2022/04/12 04:40:31;;;;;;;16.90;5.40;;;;;;;9.82;59.58;100265.53;5079624;28;20294;-65
2022/04/12 04:43:03;;;;;;;10.23;4.97;;;;;;;9.97;58.83;100261.38;5076913;28;20380;-65
2022/04/12 04:45:30;;;;;;;9.37;4.87;;;;;;;9.99;58.52;100267.38;5073403;28;20230;-64
2022/04/12 04:48:00;;;;;;;10.07;4.97;;;;;;;9.97;58.70;100271.97;5079504;28;20221;-64
2022/04/12 04:50:30;;;;;;;10.67;5.53;;;;;;;9.98;58.46;100284.25;5076488;28;20254;-65
2022/04/12 04:52:59;;;;;;;7.80;5.17;;;;;;;10.09;57.95;100284.06;5077123;28;20230;-65
2022/04/12 04:55:27;;;;;;;8.73;5.03;;;;;;;10.11;58.00;100282.06;5075638;28;20776;-65
2022/04/12 04:57:56;;;;;;;11.30;5.40;;;;;;;10.08;58.14;100282.38;5078307;28;20211;-65
2022/04/12 05:00:29;;;;;;;11.03;5.30;;;;;;;10.08;58.18;100282.38;5075885;28;20214;-65
2022/04/12 05:02:58;;;;;;;7.57;5.07;;;;;;;10.15;58.29;100293.19;5080660;28;20226;-65
2022/04/12 05:05:27;;;;;;;5.80;3.93;;;;;;;10.12;58.23;100286.38;5080127;28;20224;-65
2022/04/12 05:07:57;;;;;;;10.53;5.50;;;;;;;10.07;58.50;100286.00;5073904;28;20301;-65
2022/04/12 05:10:28;;;;;;;11.50;5.17;;;;;;;9.95;59.21;100292.47;5077994;28;20239;-66
2022/04/12 05:13:00;;;;;;;10.87;5.57;;;;;;;9.91;58.46;100288.47;5079459;28;20215;-64
2022/04/12 05:15:31;;;;;;;8.90;5.10;;;;;;;9.77;60.17;100281.00;5075066;28;20298;-65
2022/04/12 05:18:03;;;;;;;10.80;5.00;;;;;;;9.82;59.44;100286.72;5076223;28;20309;-65
2022/04/12 05:20:31;;;;;;;13.20;5.57;;;;;;;9.96;59.09;100293.31;5073310;28;20375;-64
2022/04/12 05:22:59;;;;;;;7.50;5.20;;;;;;;9.87;59.25;100289.75;5077157;28;20212;-64
2022/04/12 05:25:27;;;;;;;10.67;6.13;;;;;;;9.85;59.41;100285.59;5078553;28;20218;-65
2022/04/12 05:27:55;;;;;;;11.30;6.37;;;;;;;9.84;59.47;100290.06;5076120;28;20206;-64
2022/04/12 05:30:23;;;;;;;11.43;6.80;;;;;;;9.93;59.49;100289.16;5075752;28;20739;-64
2022/04/12 05:32:52;;;;;;;10.33;5.40;;;;;;;10.05;58.72;100287.13;5078415;28;20221;-64
2022/04/12 05:35:19;;;;;;;9.80;5.40;;;;;;;10.07;59.26;100291.31;5075972;28;20208;-64
2022/04/12 05:37:51;;;;;;;8.57;5.57;;;;;;;10.14;58.49;100295.03;5080352;28;21304;-64
2022/04/12 05:40:21;;;;;;;11.67;5.80;;;;;;;10.04;58.59;100296.91;5073492;28;20201;-64
2022/04/12 05:42:51;;;;;;;11.67;6.43;;;;;;;10.18;58.68;100296.44;5077477;28;20676;-64
2022/04/12 05:45:18;;;;;;;9.40;5.83;;;;;;;10.17;58.87;100297.41;5075247;28;20235;-64
2022/04/12 05:47:49;;;;;;;10.03;5.33;;;;;;;10.19;58.46;100310.53;5080414;28;20222;-64
2022/04/12 05:50:21;;;;;;;9.03;5.97;;;;;;;10.25;58.86;100314.38;5078394;28;20668;-64
2022/04/12 05:52:50;;;;;;;10.57;5.97;;;;;;;10.12;58.38;100310.22;5076824;28;20441;-66
2022/04/12 05:55:19;;;;;;;11.67;5.70;;;;;;;10.27;58.57;100312.41;5075420;28;20214;-66
2022/04/12 05:57:52;;;;;;;12.13;5.63;;;;;;;10.35;58.28;100305.38;5080463;28;20195;-66
2022/04/12 06:00:20;;;;;;;11.20;5.63;;;;;;;10.26;58.45;100311.59;5077215;28;20229;-66
2022/04/12 06:02:49;;;;;;;11.50;5.77;;;;;;;10.28;58.08;100295.53;5080605;28;20683;-66
2022/04/12 06:05:18;;;;;;;9.53;5.57;;;;;;;10.35;57.75;100296.59;5079004;28;20207;-66
2022/04/12 06:07:46;;;;;;;12.10;6.20;;;;;;;10.20;58.38;100306.06;5072083;28;20224;-66
2022/04/12 06:10:16;;;;;;;11.67;6.17;;;;;;;10.40;57.96;100307.56;5069848;28;20203;-66
2022/04/12 06:12:45;;;;;;;9.17;5.23;;;;;;;10.45;57.75;100305.31;5077314;28;20205;-65
2022/04/12 06:15:13;;;;;;;12.20;5.70;;;;;;;10.45;58.00;100302.66;5078614;28;20663;-66
2022/04/12 06:17:41;;;;;;;10.17;5.90;;;;;;;10.50;57.57;100297.72;5078107;28;20230;-65
2022/04/12 06:20:30;;;;;;;7.80;5.03;;;;;;;10.54;57.71;100304.41;5080172;28;20318;-65
2022/04/12 06:22:57;;;;;;;9.50;6.30;;;;;;;10.63;57.40;100308.78;5080834;28;20747;-65
2022/04/12 06:25:25;;;;;;;8.77;6.03;;;;;;;10.68;57.46;100305.69;5080134;28;20213;-65
2022/04/12 06:27:53;;;;;;;12.20;6.23;;;;;;;10.77;57.21;100310.06;5077477;28;20289;-65
2022/04/12 06:30:22;;;;;;;10.17;6.37;;;;;;;10.73;57.08;100306.06;5077302;28;20226;-65
2022/04/12 06:32:50;;;;;;;11.33;6.50;;;;;;;10.82;57.04;100308.59;5082196;28;20270;-65
2022/04/12 06:35:17;;;;;;;9.87;6.00;;;;;;;10.82;57.55;100303.31;5080028;28;20298;-65
2022/04/12 06:37:48;;;;;;;12.97;5.77;;;;;;;10.89;57.34;100309.69;5079325;28;20252;-66
2022/04/12 06:40:19;;;;;;;7.30;5.40;;;;;;;11.01;56.94;100318.19;5078616;28;20215;-65
2022/04/12 06:42:48;;;;;;;9.80;5.33;;;;;;;11.02;56.98;100308.44;5077276;28;20294;-66
2022/04/12 06:45:16;;;;;;;9.10;5.33;;;;;;;11.05;57.30;100313.44;5082251;28;20302;-66
2022/04/12 06:47:44;;;;;;;11.37;5.70;;;;;;;11.10;57.08;100316.44;5077788;28;20234;-65
2022/04/12 06:50:13;;;;;;;9.63;5.67;;;;;;;11.17;56.47;100322.81;5074444;28;20239;-65
2022/04/12 06:52:40;;;;;;;9.40;5.20;;;;;;;11.23;56.86;100316.88;5076441;28;20303;-65
2022/04/12 06:55:10;;;;;;;12.20;5.60;;;;;;;11.28;56.74;100317.22;5075326;28;20204;-64
2022/04/12 06:57:39;;;;;;;9.87;5.77;;;;;;;11.37;56.32;100318.94;5075758;28;20214;-61
2022/04/12 07:00:09;;;;;;;10.27;5.97;;;;;;;11.29;56.70;100319.72;5078182;28;20243;-61
2022/04/12 07:02:37;;;;;;;9.57;5.50;;;;;;;11.35;56.39;100310.31;5083707;28;21289;-63
2022/04/12 07:05:08;;;;;;;9.97;4.83;;;;;;;11.39;56.41;100319.63;5085108;28;20624;-63
2022/04/12 07:07:36;;;;;;;9.97;5.10;;;;;;;11.52;56.98;100321.88;5074487;28;20227;-63
2022/04/12 07:10:19;;;;;;;7.70;5.20;;;;;;;11.59;56.43;100315.78;5080171;28;20207;-64
2022/04/12 07:12:53;;;;;;;6.37;4.43;;;;;;;11.69;56.02;100321.81;5079582;28;20301;-64
2022/04/12 07:15:27;;;;;;;15.70;5.43;;;;;;;11.62;57.01;100320.75;5081217;28;20199;-64
2022/04/12 07:17:55;;;;;;;10.33;5.33;;;;;;;11.65;56.03;100323.09;5078077;28;20568;-63
2022/04/12 07:20:23;;;;;;;8.83;4.93;;;;;;;11.74;55.76;100326.63;5087872;28;20302;-62
2022/04/12 07:22:51;;;;;;;9.10;5.00;;;;;;;11.84;55.40;100313.25;5085000;28;20214;-62
2022/04/12 07:25:20;;;;;;;11.47;5.57;;;;;;;11.80;55.50;100325.19;5085557;28;20315;-62
2022/04/12 07:27:47;;;;;;;8.77;5.27;;;;;;;11.90;55.12;100320.56;5080744;28;20273;-61
2022/04/12 07:30:16;;;;;;;10.47;5.87;;;;;;;11.79;55.50;100326.16;5075804;28;20302;-63
2022/04/12 07:33:04;;;;;;;13.10;5.43;;;;;;;11.66;55.60;100319.44;5073602;28;20220;-63
2022/04/12 07:35:31;;;;;;;9.87;5.17;;;;;;;11.77;55.32;100323.69;5083501;28;20251;-64
2022/04/12 07:37:59;;;;;;;9.43;5.70;;;;;;;11.98;54.66;100325.91;5074383;28;20264;-63
2022/04/12 07:40:28;;;;;;;9.97;6.03;;;;;;;12.07;54.35;100316.97;5083804;28;20210;-64
2022/04/12 07:42:56;;;;;;;9.53;5.80;;;;;;;12.10;54.60;100316.66;5091688;28;20215;-63
2022/04/12 07:45:23;;;;;;;12.63;5.37;;;;;;;12.16;54.72;100315.19;5074279;28;20229;-64
2022/04/12 07:47:51;;;;;;;9.87;5.63;;;;;;;12.24;54.45;100324.00;5080100;28;20230;-63
2022/04/12 07:50:25;;;;;;;11.10;6.03;;;;;;;12.37;54.06;100308.44;5085305;28;20200;-62
2022/04/12 07:52:52;;;;;;;8.03;5.87;;;;;;;12.55;53.63;100316.28;5077788;28;20302;-63
2022/04/12 07:55:20;;;;;;;10.60;5.90;;;;;;;12.57;53.57;100318.78;5074012;28;20215;-64
2022/04/12 07:57:49;;;;;;;12.50;5.80;;;;;;;12.76;52.90;100310.44;5083719;28;20290;-63
2022/04/12 08:00:17;;;;;;;9.80;5.53;;;;;;;12.85;53.86;100317.44;5090726;28;20207;-63
2022/04/12 08:02:44;;;;;;;10.07;5.67;;;;;;;12.99;52.67;100314.13;5083749;28;20216;-64
2022/04/12 08:05:12;;;;;;;8.83;5.97;;;;;;;13.16;51.99;100320.28;5084292;28;20305;-64
2022/04/12 08:07:48;;;;;;;8.43;5.77;;;;;;;13.30;50.89;100310.78;5079790;28;20224;-65
2022/04/12 08:10:16;;;;;;;11.63;6.27;;;;;;;13.36;52.15;100315.44;5074539;28;20205;-63
2022/04/12 08:12:44;;;;;;;11.00;5.93;;;;;;;13.50;51.11;100312.06;5075583;28;20206;-61
2022/04/12 08:15:15;;;;;;;11.27;6.23;;;;;;;13.55;50.71;100318.53;5074051;28;20210;-61
2022/04/12 08:17:52;;;;;;;11.77;6.17;;;;;;;13.73;50.73;100318.31;5085524;28;20230;-63
2022/04/12 08:20:19;;;;;;;10.53;6.37;;;;;;;13.86;49.76;100317.78;5087690;28;20221;-61
2022/04/12 08:22:48;;;;;;;11.57;6.03;;;;;;;13.96;50.36;100318.41;5082383;28;20206;-62
2022/04/12 08:25:17;;;;;;;15.80;8.03;;;;;;;14.00;49.37;100310.88;5082742;28;20214;-64
2022/04/12 08:27:45;;;;;;;13.13;6.27;;;;;;;14.17;50.95;100320.44;5076042;28;20241;-64
2022/04/12 08:30:14;;;;;;;11.13;6.97;;;;;;;14.32;51.08;100319.56;5082432;28;20207;-66
2022/04/12 08:32:42;;;;;;;13.70;7.27;;;;;;;14.49;50.25;100320.31;5076736;28;20293;-66
2022/04/12 08:35:10;;;;;;;10.07;7.13;;;;;;;14.55;49.47;100324.09;5083883;28;20210;-66
2022/04/12 08:37:38;;;;;;;12.70;7.27;;;;;;;14.67;49.08;100317.34;5075826;28;20225;-65
2022/04/12 08:40:07;;;;;;;12.67;7.07;;;;;;;14.73;48.44;100315.78;5083158;28;20739;-67
2022/04/12 08:42:36;;;;;;;11.90;7.67;;;;;;;14.87;47.74;100312.31;5080960;28;20213;-65
2022/04/12 08:45:06;;;;;;;12.20;7.23;;;;;;;14.95;48.29;100315.75;5072158;28;20847;-65
2022/04/12 08:47:35;;;;;;;13.80;8.20;;;;;;;15.13;48.50;100310.09;5077979;28;20265;-65
2022/04/12 08:50:06;;;;;;;11.07;6.83;;;;;;;15.33;48.04;100310.41;5071319;28;20579;-66
2022/04/12 08:52:34;;;;;;;11.97;7.47;;;;;;;15.35;47.64;100303.06;5081281;28;20668;-65
2022/04/12 08:55:02;;;;;;;19.50;7.33;;;;;;;15.58;47.62;100294.97;5087116;28;20288;-65
2022/04/12 08:57:30;;;;;;;14.10;8.10;;;;;;;15.83;46.13;100293.69;5087044;28;20302;-65
2022/04/12 08:59:58;;;;;;;16.93;7.73;;;;;;;15.88;47.54;100296.63;5088286;28;20674;-66
2022/04/12 09:02:25;;;;;;;12.17;7.80;;;;;;;15.95;46.76;100297.53;5073589;28;20289;-65
2022/04/12 09:04:55;;;;;;;22.00;7.60;;;;;;;16.12;45.81;100288.25;5089693;28;20283;-65
2022/04/12 09:07:25;;;;;;;17.07;7.90;;;;;;;16.26;45.54;100294.63;5083114;28;20207;-65
2022/04/12 09:10:03;;;;;;;11.83;7.87;;;;;;;16.46;45.29;100294.78;5083591;28;20215;-65
2022/04/12 09:12:35;;;;;;;12.43;7.73;;;;;;;16.63;46.04;100290.88;5075273;28;20333;-65
2022/04/12 09:15:09;;;;;;;12.33;7.57;;;;;;;16.56;45.33;100287.28;5079569;28;20217;-65
2022/04/12 09:17:41;;;;;;;12.80;7.70;;;;;;;16.65;45.40;100288.84;5084576;28;20706;-65
2022/04/12 09:20:16;;;;;;;14.30;7.73;;;;;;;16.90;44.27;100284.75;5069953;28;20293;-65
2022/04/12 09:22:44;;;;;;;15.37;7.90;;;;;;;16.97;43.40;100292.03;5074298;28;20199;-65
2022/04/12 09:25:13;;;;;;;14.63;9.00;;;;;;;17.16;42.31;100292.16;5084672;28;20693;-64
2022/04/12 09:27:44;;;;;;;15.07;9.50;;;;;;;17.29;42.55;100281.53;5084809;28;20601;-64
2022/04/12 09:30:13;;;;;;;14.23;7.90;;;;;;;17.61;43.28;100285.44;5081357;28;20198;-65
2022/04/12 09:32:43;;;;;;;13.53;7.57;;;;;;;17.81;42.06;100285.56;5078564;28;20246;-66
2022/04/12 09:35:12;;;;;;;16.33;8.20;;;;;;;17.95;40.54;100281.91;5078077;28;20213;-65
2022/04/12 09:37:42;;;;;;;13.00;8.07;;;;;;;17.89;39.99;100274.66;5074480;28;20314;-65
2022/04/12 09:40:12;;;;;;;12.33;7.10;;;;;;;18.23;40.91;100278.28;5075569;28;20251;-66
2022/04/12 09:42:43;;;;;;;11.87;7.27;;;;;;;18.47;40.24;100282.28;5078705;28;20214;-65
2022/04/12 09:45:12;;;;;;;10.77;7.17;;;;;;;18.65;40.26;100274.47;5075856;28;20219;-65
2022/04/12 09:47:41;;;;;;;11.40;6.40;;;;;;;19.04;39.89;100273.66;5076914;28;20653;-65
2022/04/12 09:50:31;;;;;;;14.47;7.03;;;;;;;19.58;38.60;100262.63;5069336;28;20223;-65
2022/04/12 09:53:00;;;;;;;11.30;7.43;;;;;;;19.96;37.42;100251.13;5079216;28;20541;-66
2022/04/12 09:55:35;;;;;;;13.13;7.30;;;;;;;20.59;36.63;100254.69;5069665;28;20226;-64
2022/04/12 09:58:18;;;;;;;13.07;7.23;;;;;;;22.89;32.57;100248.44;5071134;28;20194;-65
2022/04/12 10:00:47;;;;;;;11.03;6.57;;;;;;;25.77;28.96;100244.84;5072412;28;20200;-66
2022/04/12 10:03:17;;;;;;;10.07;6.20;;;;;;;28.23;25.72;100241.81;5072858;28;20218;-66
2022/04/12 10:05:47;;;;;;;12.53;7.27;;;;;;;29.44;24.31;100230.88;5074531;28;21598;-65
2022/04/12 10:08:17;;;;;;;12.43;7.13;;;;;;;29.20;24.09;100227.09;5074695;28;20243;-67
2022/04/12 10:10:46;;;;;;;10.32;6.63;;;;;;;29.59;24.32;100227.25;5075587;28;20325;-68
2022/04/12 10:13:15;;;;;;;9.25;6.43;;;;;;;31.53;22.58;100216.47;5079073;28;20267;-70
2022/04/12 10:15:44;;;;;;;10.27;6.20;;;;;;;31.46;22.14;100203.13;5077178;28;20295;-66
2022/04/12 10:18:15;;;;;;;9.90;6.53;;;;;;;32.45;21.04;100200.41;5077536;28;20724;-66
2022/04/12 10:20:43;;;;;;;10.82;6.75;;;;;;;31.06;22.60;100196.16;5080327;28;20264;-66
2022/04/12 10:23:23;;;;;;;9.10;6.53;;;;;;;29.78;23.29;100191.94;5081814;28;20234;-70
2022/04/12 10:25:52;;;;;;;10.00;7.07;;;;;;;31.25;21.97;100196.25;5070042;28;20590;-70
2022/04/12 10:28:22;;;;;;;13.15;6.78;;;;;;;33.27;19.90;100184.13;5075863;28;20229;-68
2022/04/12 10:30:50;;;;;;;13.23;6.70;;;;;;;32.04;20.96;100181.78;5077757;28;20296;-69
2022/04/12 10:33:20;;;;;;;12.98;7.18;;;;;;;31.32;21.42;100172.88;5077270;28;20345;-69
2022/04/12 10:35:59;;;;;;;10.52;6.70;;;;;;;30.25;22.71;100167.59;5084959;28;20195;-68
2022/04/12 10:38:40;;;;;;;13.90;7.07;;;;;;;28.00;25.78;100155.88;5074068;28;20229;-67
2022/04/12 10:41:17;;;;;;;9.93;7.00;;;;;;;26.19;27.46;100165.44;5079856;28;20639;-66
2022/04/12 10:43:47;;;;;;;8.45;5.93;;;;;;;26.70;27.32;100163.16;5076618;28;20298;-66
2022/04/12 10:46:21;;;;;;;12.10;6.95;;;;;;;26.75;27.28;100155.03;5084251;28;20313;-66
2022/04/12 10:48:54;;;;;;;12.18;6.35;;;;;;;27.25;27.10;100147.19;5075376;28;20258;-69
2022/04/12 10:51:37;;;;;;;10.60;6.68;;;;;;;27.42;27.48;100144.28;5072965;28;20660;-67
2022/04/12 10:54:11;;;;;;;10.23;6.18;;;;;;;28.01;26.06;100144.72;5071246;28;20234;-67
2022/04/12 10:56:38;;;;;;;11.60;6.10;;;;;;;27.82;25.99;100137.31;5082284;28;20209;-67
2022/04/12 10:59:06;;;;;;;11.85;6.03;;;;;;;30.25;23.31;100137.53;5080343;28;20228;-67
2022/04/12 11:01:35;;;;;;;11.27;6.40;;;;;;;28.57;25.27;100136.56;5078741;28;20203;-68
2022/04/12 11:04:04;;;;;;;9.27;5.03;;;;;;;27.30;26.62;100130.88;5073586;28;20638;-66
2022/04/12 11:06:33;;;;;;;10.07;6.25;;;;;;;27.15;26.86;100132.72;5081097;28;20443;-67
2022/04/12 11:09:15;;;;;;;9.00;6.20;;;;;;;26.80;26.28;100130.59;5075333;28;20595;-67
2022/04/12 11:11:45;;;;;;;10.07;5.78;;;;;;;26.90;27.40;100136.91;5081146;28;20242;-68
2022/04/12 11:14:27;;;;;;;9.65;5.35;;;;;;;27.16;27.51;100129.75;5076151;28;20211;-67
2022/04/12 11:16:58;;;;;;;10.05;5.85;;;;;;;29.49;24.59;100118.84;5075648;28;20468;-67
2022/04/12 11:19:26;;;;;;;9.90;5.57;;;;;;;30.77;23.06;100114.06;5077199;28;20631;-67
2022/04/12 11:22:01;;;;;;;11.73;6.10;;;;;;;31.52;21.82;100106.03;5073463;28;20211;-67
2022/04/12 11:24:33;;;;;;;10.27;6.00;;;;;;;33.32;20.35;100092.53;5079271;28;20203;-67
2022/04/12 11:27:03;;;;;;;8.02;5.47;;;;;;;33.30;20.57;100094.78;5077369;28;20550;-66
2022/04/12 11:29:31;;;;;;;9.50;5.93;;;;;;;33.33;20.85;100086.75;5077319;28;20257;-67
2022/04/12 11:31:59;;;;;;;8.15;5.80;;;;;;;31.81;21.64;100091.41;5071709;28;20579;-67
2022/04/12 11:34:29;;;;;;;11.45;5.70;;;;;;;31.91;21.92;100092.06;5072074;28;20222;-67
2022/04/12 11:36:58;;;;;;;9.63;5.90;;;;;;;31.24;22.04;100093.28;5070019;28;20291;-67